sensor_id;sensor_type;location;lat;lon;timestamp;P1;durP1;ratioP1;P2;durP2;ratioP2
21356;SDS011;10836;53.068;18.234;2023-08-30T00:02:11;33.00;;;21.40;;
21356;SDS011;10836;53.068;18.234;2023-08-30T00:04:38;29.42;;;20.40;;
21356;SDS011;10836;53.068;18.234;2023-08-30T00:07:05;31.52;;;21.08;;
21356;SDS011;10836;53.068;18.234;2023-08-30T00:09:32;31.13;;;20.55;;
21356;SDS011;10836;53.068;18.234;2023-08-30T00:11:59;36.88;;;21.67;;
21356;SDS011;10836;53.068;18.234;2023-08-30T00:14:27;34.50;;;21.77;;
21356;SDS011;10836;53.068;18.234;2023-08-30T00:16:53;32.03;;;21.80;;
21356;SDS011;10836;53.068;18.234;2023-08-30T00:19:21;31.95;;;20.85;;
21356;SDS011;10836;53.068;18.234;2023-08-30T00:21:47;32.10;;;20.15;;
21356;SDS011;10836;53.068;18.234;2023-08-30T00:24:14;32.67;;;20.30;;
21356;SDS011;10836;53.068;18.234;2023-08-30T00:26:41;29.92;;;20.55;;
21356;SDS011;10836;53.068;18.234;2023-08-30T00:29:08;29.52;;;20.20;;
21356;SDS011;10836;53.068;18.234;2023-08-30T00:31:35;31.58;;;20.23;;
21356;SDS011;10836;53.068;18.234;2023-08-30T00:34:02;31.52;;;19.95;;
21356;SDS011;10836;53.068;18.234;2023-08-30T00:36:29;33.53;;;20.13;;
21356;SDS011;10836;53.068;18.234;2023-08-30T00:38:57;32.47;;;19.63;;
21356;SDS011;10836;53.068;18.234;2023-08-30T00:41:24;32.33;;;18.70;;
21356;SDS011;10836;53.068;18.234;2023-08-30T00:43:51;31.77;;;19.65;;
21356;SDS011;10836;53.068;18.234;2023-08-30T00:46:17;25.92;;;17.60;;
21356;SDS011;10836;53.068;18.234;2023-08-30T00:48:45;23.60;;;16.23;;
21356;SDS011;10836;53.068;18.234;2023-08-30T00:51:12;24.10;;;15.80;;
21356;SDS011;10836;53.068;18.234;2023-08-30T00:53:39;20.40;;;15.75;;
21356;SDS011;10836;53.068;18.234;2023-08-30T00:56:06;23.25;;;15.23;;
21356;SDS011;10836;53.068;18.234;2023-08-30T00:58:33;24.63;;;15.40;;
21356;SDS011;10836;53.068;18.234;2023-08-30T01:01:01;21.88;;;15.38;;
21356;SDS011;10836;53.068;18.234;2023-08-30T01:03:28;22.48;;;14.10;;
21356;SDS011;10836;53.068;18.234;2023-08-30T01:05:55;24.70;;;15.07;;
21356;SDS011;10836;53.068;18.234;2023-08-30T01:08:23;19.02;;;13.13;;
21356;SDS011;10836;53.068;18.234;2023-08-30T01:13:37;19.35;;;12.70;;
21356;SDS011;10836;53.068;18.234;2023-08-30T01:16:11;18.88;;;11.82;;
21356;SDS011;10836;53.068;18.234;2023-08-30T01:18:39;19.80;;;13.07;;
21356;SDS011;10836;53.068;18.234;2023-08-30T01:21:06;19.40;;;12.70;;
21356;SDS011;10836;53.068;18.234;2023-08-30T01:26:26;16.75;;;11.07;;
21356;SDS011;10836;53.068;18.234;2023-08-30T01:29:05;18.67;;;12.23;;
21356;SDS011;10836;53.068;18.234;2023-08-30T01:31:33;18.38;;;12.25;;
21356;SDS011;10836;53.068;18.234;2023-08-30T01:34:02;17.55;;;12.45;;
21356;SDS011;10836;53.068;18.234;2023-08-30T01:36:30;19.00;;;12.60;;
21356;SDS011;10836;53.068;18.234;2023-08-30T01:39:00;25.10;;;14.25;;
21356;SDS011;10836;53.068;18.234;2023-08-30T01:41:28;21.40;;;12.27;;
21356;SDS011;10836;53.068;18.234;2023-08-30T01:43:58;22.30;;;13.68;;
21356;SDS011;10836;53.068;18.234;2023-08-30T01:46:25;24.02;;;13.90;;
21356;SDS011;10836;53.068;18.234;2023-08-30T01:48:54;23.70;;;14.93;;
21356;SDS011;10836;53.068;18.234;2023-08-30T01:51:22;23.38;;;14.55;;
21356;SDS011;10836;53.068;18.234;2023-08-30T01:53:50;28.65;;;16.10;;
21356;SDS011;10836;53.068;18.234;2023-08-30T01:56:19;26.85;;;14.65;;
21356;SDS011;10836;53.068;18.234;2023-08-30T01:58:46;22.13;;;13.85;;
21356;SDS011;10836;53.068;18.234;2023-08-30T02:01:13;24.17;;;14.95;;
21356;SDS011;10836;53.068;18.234;2023-08-30T02:03:43;28.55;;;15.63;;
21356;SDS011;10836;53.068;18.234;2023-08-30T02:06:13;29.92;;;16.38;;
21356;SDS011;10836;53.068;18.234;2023-08-30T02:08:49;24.40;;;15.27;;
21356;SDS011;10836;53.068;18.234;2023-08-30T02:11:26;29.73;;;17.63;;
21356;SDS011;10836;53.068;18.234;2023-08-30T02:13:56;34.20;;;18.60;;
21356;SDS011;10836;53.068;18.234;2023-08-30T02:16:25;32.05;;;18.20;;
21356;SDS011;10836;53.068;18.234;2023-08-30T02:18:53;35.33;;;18.88;;
21356;SDS011;10836;53.068;18.234;2023-08-30T02:21:21;35.00;;;17.67;;
21356;SDS011;10836;53.068;18.234;2023-08-30T02:23:50;31.98;;;17.92;;
21356;SDS011;10836;53.068;18.234;2023-08-30T02:26:18;32.35;;;17.77;;
21356;SDS011;10836;53.068;18.234;2023-08-30T02:28:46;35.40;;;17.73;;
21356;SDS011;10836;53.068;18.234;2023-08-30T02:31:13;32.60;;;16.77;;
21356;SDS011;10836;53.068;18.234;2023-08-30T02:33:41;27.90;;;16.52;;
21356;SDS011;10836;53.068;18.234;2023-08-30T02:36:10;35.08;;;17.88;;
21356;SDS011;10836;53.068;18.234;2023-08-30T02:38:37;34.22;;;18.67;;
21356;SDS011;10836;53.068;18.234;2023-08-30T02:41:04;37.40;;;18.45;;
21356;SDS011;10836;53.068;18.234;2023-08-30T02:43:31;32.35;;;19.02;;
21356;SDS011;10836;53.068;18.234;2023-08-30T02:45:59;36.45;;;18.35;;
21356;SDS011;10836;53.068;18.234;2023-08-30T02:48:28;34.08;;;18.63;;
21356;SDS011;10836;53.068;18.234;2023-08-30T02:50:54;34.80;;;19.42;;
21356;SDS011;10836;53.068;18.234;2023-08-30T02:53:22;36.05;;;18.58;;
21356;SDS011;10836;53.068;18.234;2023-08-30T02:55:49;41.00;;;20.85;;
21356;SDS011;10836;53.068;18.234;2023-08-30T02:58:16;40.50;;;19.90;;
21356;SDS011;10836;53.068;18.234;2023-08-30T03:00:43;40.17;;;20.80;;
21356;SDS011;10836;53.068;18.234;2023-08-30T03:03:10;40.80;;;20.85;;
21356;SDS011;10836;53.068;18.234;2023-08-30T03:05:37;36.17;;;19.83;;
21356;SDS011;10836;53.068;18.234;2023-08-30T03:08:04;38.92;;;20.73;;
21356;SDS011;10836;53.068;18.234;2023-08-30T03:10:32;44.10;;;21.42;;
21356;SDS011;10836;53.068;18.234;2023-08-30T03:12:59;41.28;;;19.58;;
21356;SDS011;10836;53.068;18.234;2023-08-30T03:15:26;42.40;;;21.83;;
21356;SDS011;10836;53.068;18.234;2023-08-30T03:17:53;46.80;;;23.63;;
21356;SDS011;10836;53.068;18.234;2023-08-30T03:20:20;40.72;;;21.80;;
21356;SDS011;10836;53.068;18.234;2023-08-30T03:22:48;50.00;;;23.23;;
21356;SDS011;10836;53.068;18.234;2023-08-30T03:25:15;50.38;;;22.75;;
21356;SDS011;10836;53.068;18.234;2023-08-30T03:27:45;42.70;;;21.50;;
21356;SDS011;10836;53.068;18.234;2023-08-30T03:30:12;43.85;;;21.98;;
21356;SDS011;10836;53.068;18.234;2023-08-30T03:32:39;41.80;;;21.27;;
21356;SDS011;10836;53.068;18.234;2023-08-30T03:35:06;50.05;;;23.35;;
21356;SDS011;10836;53.068;18.234;2023-08-30T03:37:35;43.40;;;20.88;;
21356;SDS011;10836;53.068;18.234;2023-08-30T03:40:02;46.90;;;22.30;;
21356;SDS011;10836;53.068;18.234;2023-08-30T03:42:29;45.80;;;20.65;;
21356;SDS011;10836;53.068;18.234;2023-08-30T03:44:56;44.85;;;19.80;;
21356;SDS011;10836;53.068;18.234;2023-08-30T03:47:23;42.53;;;19.80;;
21356;SDS011;10836;53.068;18.234;2023-08-30T03:49:50;45.17;;;17.38;;
21356;SDS011;10836;53.068;18.234;2023-08-30T03:52:17;39.90;;;18.77;;
21356;SDS011;10836;53.068;18.234;2023-08-30T03:54:43;36.88;;;17.88;;
21356;SDS011;10836;53.068;18.234;2023-08-30T03:57:10;39.03;;;16.55;;
21356;SDS011;10836;53.068;18.234;2023-08-30T03:59:38;33.45;;;16.67;;
21356;SDS011;10836;53.068;18.234;2023-08-30T04:02:05;36.70;;;16.60;;
21356;SDS011;10836;53.068;18.234;2023-08-30T04:04:32;35.40;;;16.48;;
21356;SDS011;10836;53.068;18.234;2023-08-30T04:06:59;32.85;;;15.50;;
21356;SDS011;10836;53.068;18.234;2023-08-30T04:09:26;31.33;;;14.50;;
21356;SDS011;10836;53.068;18.234;2023-08-30T04:11:53;30.17;;;14.43;;
21356;SDS011;10836;53.068;18.234;2023-08-30T04:14:20;31.45;;;14.55;;
21356;SDS011;10836;53.068;18.234;2023-08-30T04:16:50;30.17;;;13.68;;
21356;SDS011;10836;53.068;18.234;2023-08-30T04:19:17;23.38;;;12.20;;
21356;SDS011;10836;53.068;18.234;2023-08-30T04:21:44;21.90;;;11.43;;
21356;SDS011;10836;53.068;18.234;2023-08-30T04:24:11;18.83;;;10.88;;
21356;SDS011;10836;53.068;18.234;2023-08-30T04:26:38;20.23;;;11.18;;
21356;SDS011;10836;53.068;18.234;2023-08-30T04:29:05;19.05;;;9.98;;
21356;SDS011;10836;53.068;18.234;2023-08-30T04:31:32;18.45;;;11.00;;
21356;SDS011;10836;53.068;18.234;2023-08-30T04:33:59;17.17;;;10.35;;
21356;SDS011;10836;53.068;18.234;2023-08-30T04:36:27;19.50;;;10.73;;
21356;SDS011;10836;53.068;18.234;2023-08-30T04:38:54;17.80;;;11.15;;
21356;SDS011;10836;53.068;18.234;2023-08-30T04:41:29;19.20;;;10.70;;
21356;SDS011;10836;53.068;18.234;2023-08-30T04:43:56;17.75;;;10.38;;
21356;SDS011;10836;53.068;18.234;2023-08-30T04:46:23;15.70;;;10.65;;
21356;SDS011;10836;53.068;18.234;2023-08-30T04:48:51;16.85;;;10.30;;
21356;SDS011;10836;53.068;18.234;2023-08-30T04:51:18;20.17;;;10.70;;
21356;SDS011;10836;53.068;18.234;2023-08-30T04:53:45;16.98;;;10.88;;
21356;SDS011;10836;53.068;18.234;2023-08-30T04:56:12;18.63;;;10.98;;
21356;SDS011;10836;53.068;18.234;2023-08-30T04:58:40;17.15;;;10.43;;
21356;SDS011;10836;53.068;18.234;2023-08-30T05:01:10;15.23;;;9.73;;
21356;SDS011;10836;53.068;18.234;2023-08-30T05:03:41;14.73;;;8.90;;
21356;SDS011;10836;53.068;18.234;2023-08-30T05:06:11;18.58;;;10.82;;
21356;SDS011;10836;53.068;18.234;2023-08-30T05:08:42;14.38;;;9.95;;
21356;SDS011;10836;53.068;18.234;2023-08-30T05:11:10;17.23;;;10.75;;
21356;SDS011;10836;53.068;18.234;2023-08-30T05:13:37;16.75;;;10.95;;
21356;SDS011;10836;53.068;18.234;2023-08-30T05:16:04;18.13;;;11.18;;
21356;SDS011;10836;53.068;18.234;2023-08-30T05:18:32;17.20;;;10.18;;
21356;SDS011;10836;53.068;18.234;2023-08-30T05:21:01;14.20;;;10.05;;
21356;SDS011;10836;53.068;18.234;2023-08-30T05:23:30;14.00;;;9.82;;
21356;SDS011;10836;53.068;18.234;2023-08-30T05:25:57;16.98;;;10.88;;
21356;SDS011;10836;53.068;18.234;2023-08-30T05:28:24;17.95;;;9.57;;
21356;SDS011;10836;53.068;18.234;2023-08-30T05:30:52;16.42;;;10.00;;
21356;SDS011;10836;53.068;18.234;2023-08-30T05:33:36;14.32;;;9.60;;
21356;SDS011;10836;53.068;18.234;2023-08-30T05:36:24;14.15;;;9.43;;
21356;SDS011;10836;53.068;18.234;2023-08-30T05:39:00;16.05;;;9.52;;
21356;SDS011;10836;53.068;18.234;2023-08-30T05:41:36;16.85;;;10.55;;
21356;SDS011;10836;53.068;18.234;2023-08-30T05:44:03;16.27;;;11.25;;
21356;SDS011;10836;53.068;18.234;2023-08-30T05:46:31;13.82;;;9.77;;
21356;SDS011;10836;53.068;18.234;2023-08-30T05:48:58;16.00;;;9.60;;
21356;SDS011;10836;53.068;18.234;2023-08-30T05:51:28;17.23;;;9.55;;
21356;SDS011;10836;53.068;18.234;2023-08-30T05:53:56;14.88;;;8.60;;
21356;SDS011;10836;53.068;18.234;2023-08-30T05:56:23;15.88;;;8.55;;
21356;SDS011;10836;53.068;18.234;2023-08-30T05:58:50;13.82;;;8.38;;
21356;SDS011;10836;53.068;18.234;2023-08-30T06:01:18;11.68;;;7.55;;
21356;SDS011;10836;53.068;18.234;2023-08-30T06:03:45;12.63;;;8.20;;
21356;SDS011;10836;53.068;18.234;2023-08-30T06:06:13;12.10;;;7.88;;
21356;SDS011;10836;53.068;18.234;2023-08-30T06:08:41;11.27;;;7.55;;
21356;SDS011;10836;53.068;18.234;2023-08-30T06:11:08;9.32;;;6.72;;
21356;SDS011;10836;53.068;18.234;2023-08-30T06:13:35;10.98;;;6.47;;
21356;SDS011;10836;53.068;18.234;2023-08-30T06:16:02;11.00;;;7.30;;
21356;SDS011;10836;53.068;18.234;2023-08-30T06:18:29;11.98;;;7.32;;
21356;SDS011;10836;53.068;18.234;2023-08-30T06:20:58;8.68;;;6.68;;
21356;SDS011;10836;53.068;18.234;2023-08-30T06:23:25;10.85;;;6.68;;
21356;SDS011;10836;53.068;18.234;2023-08-30T06:25:55;8.10;;;6.03;;
21356;SDS011;10836;53.068;18.234;2023-08-30T06:28:23;7.40;;;5.78;;
21356;SDS011;10836;53.068;18.234;2023-08-30T06:30:50;6.95;;;5.40;;
21356;SDS011;10836;53.068;18.234;2023-08-30T06:33:17;7.25;;;5.10;;
21356;SDS011;10836;53.068;18.234;2023-08-30T06:35:47;7.20;;;5.32;;
21356;SDS011;10836;53.068;18.234;2023-08-30T06:38:15;7.10;;;4.72;;
21356;SDS011;10836;53.068;18.234;2023-08-30T06:40:43;6.65;;;4.75;;
21356;SDS011;10836;53.068;18.234;2023-08-30T06:43:11;7.15;;;4.93;;
21356;SDS011;10836;53.068;18.234;2023-08-30T06:45:40;6.47;;;5.05;;
21356;SDS011;10836;53.068;18.234;2023-08-30T06:48:07;8.45;;;5.05;;
21356;SDS011;10836;53.068;18.234;2023-08-30T06:50:36;9.00;;;4.72;;
21356;SDS011;10836;53.068;18.234;2023-08-30T06:53:03;7.78;;;4.97;;
21356;SDS011;10836;53.068;18.234;2023-08-30T06:55:30;6.90;;;4.78;;
21356;SDS011;10836;53.068;18.234;2023-08-30T06:57:58;8.20;;;5.93;;
21356;SDS011;10836;53.068;18.234;2023-08-30T07:00:26;9.75;;;6.15;;
21356;SDS011;10836;53.068;18.234;2023-08-30T07:02:53;7.88;;;5.32;;
21356;SDS011;10836;53.068;18.234;2023-08-30T07:05:21;9.98;;;6.22;;
21356;SDS011;10836;53.068;18.234;2023-08-30T07:07:49;6.97;;;5.07;;
21356;SDS011;10836;53.068;18.234;2023-08-30T07:10:16;9.23;;;5.90;;
21356;SDS011;10836;53.068;18.234;2023-08-30T07:12:43;7.75;;;5.90;;
21356;SDS011;10836;53.068;18.234;2023-08-30T07:15:11;9.20;;;6.28;;
21356;SDS011;10836;53.068;18.234;2023-08-30T07:17:38;9.35;;;6.30;;
21356;SDS011;10836;53.068;18.234;2023-08-30T07:20:20;9.32;;;6.28;;
21356;SDS011;10836;53.068;18.234;2023-08-30T07:22:47;11.93;;;5.90;;
21356;SDS011;10836;53.068;18.234;2023-08-30T07:25:14;11.43;;;5.60;;
21356;SDS011;10836;53.068;18.234;2023-08-30T07:27:41;11.73;;;6.07;;
21356;SDS011;10836;53.068;18.234;2023-08-30T07:30:08;8.13;;;5.75;;
21356;SDS011;10836;53.068;18.234;2023-08-30T07:32:35;9.95;;;6.35;;
21356;SDS011;10836;53.068;18.234;2023-08-30T07:35:05;7.93;;;5.95;;
21356;SDS011;10836;53.068;18.234;2023-08-30T07:37:32;7.50;;;5.70;;
21356;SDS011;10836;53.068;18.234;2023-08-30T07:40:01;9.40;;;6.00;;
21356;SDS011;10836;53.068;18.234;2023-08-30T07:42:31;8.40;;;5.57;;
21356;SDS011;10836;53.068;18.234;2023-08-30T07:44:59;9.23;;;5.40;;
21356;SDS011;10836;53.068;18.234;2023-08-30T07:47:25;7.30;;;5.22;;
21356;SDS011;10836;53.068;18.234;2023-08-30T07:49:52;8.68;;;4.88;;
21356;SDS011;10836;53.068;18.234;2023-08-30T07:52:19;6.38;;;4.75;;
21356;SDS011;10836;53.068;18.234;2023-08-30T07:55:05;7.15;;;5.47;;
21356;SDS011;10836;53.068;18.234;2023-08-30T07:57:32;6.38;;;4.55;;
21356;SDS011;10836;53.068;18.234;2023-08-30T07:59:59;6.03;;;4.65;;
21356;SDS011;10836;53.068;18.234;2023-08-30T08:02:26;7.03;;;4.90;;
21356;SDS011;10836;53.068;18.234;2023-08-30T08:04:53;6.93;;;4.97;;
21356;SDS011;10836;53.068;18.234;2023-08-30T08:07:20;6.65;;;4.70;;
21356;SDS011;10836;53.068;18.234;2023-08-30T08:09:47;7.70;;;5.88;;
21356;SDS011;10836;53.068;18.234;2023-08-30T08:12:14;6.60;;;5.30;;
21356;SDS011;10836;53.068;18.234;2023-08-30T08:14:41;8.32;;;5.55;;
21356;SDS011;10836;53.068;18.234;2023-08-30T08:17:08;7.30;;;5.60;;
21356;SDS011;10836;53.068;18.234;2023-08-30T08:19:35;10.82;;;5.05;;
21356;SDS011;10836;53.068;18.234;2023-08-30T08:22:06;7.25;;;5.35;;
21356;SDS011;10836;53.068;18.234;2023-08-30T08:24:40;7.28;;;5.18;;
21356;SDS011;10836;53.068;18.234;2023-08-30T08:27:06;8.85;;;5.30;;
21356;SDS011;10836;53.068;18.234;2023-08-30T08:29:34;5.90;;;4.68;;
21356;SDS011;10836;53.068;18.234;2023-08-30T08:32:01;5.82;;;4.72;;
21356;SDS011;10836;53.068;18.234;2023-08-30T08:34:29;5.22;;;4.00;;
21356;SDS011;10836;53.068;18.234;2023-08-30T08:36:56;6.45;;;4.70;;
21356;SDS011;10836;53.068;18.234;2023-08-30T08:39:23;7.05;;;5.55;;
21356;SDS011;10836;53.068;18.234;2023-08-30T08:41:50;8.15;;;5.35;;
21356;SDS011;10836;53.068;18.234;2023-08-30T08:44:19;6.50;;;5.10;;
21356;SDS011;10836;53.068;18.234;2023-08-30T08:46:49;9.77;;;4.90;;
21356;SDS011;10836;53.068;18.234;2023-08-30T08:49:18;6.07;;;4.40;;
21356;SDS011;10836;53.068;18.234;2023-08-30T08:51:45;6.05;;;4.20;;
21356;SDS011;10836;53.068;18.234;2023-08-30T08:54:12;5.38;;;4.10;;
21356;SDS011;10836;53.068;18.234;2023-08-30T08:56:40;6.28;;;4.13;;
21356;SDS011;10836;53.068;18.234;2023-08-30T08:59:07;6.10;;;4.63;;
21356;SDS011;10836;53.068;18.234;2023-08-30T09:01:35;7.45;;;4.78;;
21356;SDS011;10836;53.068;18.234;2023-08-30T09:04:07;6.03;;;4.53;;
21356;SDS011;10836;53.068;18.234;2023-08-30T09:06:35;5.18;;;4.20;;
21356;SDS011;10836;53.068;18.234;2023-08-30T09:09:04;5.75;;;4.03;;
21356;SDS011;10836;53.068;18.234;2023-08-30T09:11:32;5.88;;;4.10;;
21356;SDS011;10836;53.068;18.234;2023-08-30T09:14:02;4.15;;;3.53;;
21356;SDS011;10836;53.068;18.234;2023-08-30T09:16:29;3.83;;;3.40;;
21356;SDS011;10836;53.068;18.234;2023-08-30T09:18:57;5.35;;;3.50;;
21356;SDS011;10836;53.068;18.234;2023-08-30T09:21:36;10.38;;;4.20;;
21356;SDS011;10836;53.068;18.234;2023-08-30T09:24:04;5.28;;;3.42;;
21356;SDS011;10836;53.068;18.234;2023-08-30T09:26:32;9.68;;;4.18;;
21356;SDS011;10836;53.068;18.234;2023-08-30T09:29:02;4.28;;;3.30;;
21356;SDS011;10836;53.068;18.234;2023-08-30T09:31:36;3.85;;;3.35;;
21356;SDS011;10836;53.068;18.234;2023-08-30T09:34:06;4.28;;;3.33;;
21356;SDS011;10836;53.068;18.234;2023-08-30T09:36:36;4.70;;;3.78;;
21356;SDS011;10836;53.068;18.234;2023-08-30T09:39:05;11.82;;;4.30;;
21356;SDS011;10836;53.068;18.234;2023-08-30T09:41:36;4.22;;;3.10;;
21356;SDS011;10836;53.068;18.234;2023-08-30T09:44:10;3.97;;;3.10;;
21356;SDS011;10836;53.068;18.234;2023-08-30T09:49:18;3.53;;;2.80;;
21356;SDS011;10836;53.068;18.234;2023-08-30T09:51:52;5.22;;;4.07;;
21356;SDS011;10836;53.068;18.234;2023-08-30T09:54:21;5.20;;;3.58;;
21356;SDS011;10836;53.068;18.234;2023-08-30T09:57:05;7.00;;;4.90;;
21356;SDS011;10836;53.068;18.234;2023-08-30T09:59:33;5.80;;;4.47;;
21356;SDS011;10836;53.068;18.234;2023-08-30T10:02:00;7.50;;;4.85;;
21356;SDS011;10836;53.068;18.234;2023-08-30T10:04:28;8.52;;;4.72;;
21356;SDS011;10836;53.068;18.234;2023-08-30T10:06:56;10.57;;;6.38;;
21356;SDS011;10836;53.068;18.234;2023-08-30T10:09:26;9.68;;;5.00;;
21356;SDS011;10836;53.068;18.234;2023-08-30T10:11:57;7.05;;;4.65;;
21356;SDS011;10836;53.068;18.234;2023-08-30T10:14:25;5.10;;;4.30;;
21356;SDS011;10836;53.068;18.234;2023-08-30T10:16:52;5.63;;;4.50;;
21356;SDS011;10836;53.068;18.234;2023-08-30T10:19:28;4.90;;;4.40;;
21356;SDS011;10836;53.068;18.234;2023-08-30T10:22:00;4.22;;;3.53;;
21356;SDS011;10836;53.068;18.234;2023-08-30T10:24:36;6.80;;;4.22;;
21356;SDS011;10836;53.068;18.234;2023-08-30T10:27:27;8.82;;;5.03;;
21356;SDS011;10836;53.068;18.234;2023-08-30T10:29:57;5.72;;;4.93;;
21356;SDS011;10836;53.068;18.234;2023-08-30T10:32:30;9.13;;;6.15;;
21356;SDS011;10836;53.068;18.234;2023-08-30T10:35:00;7.97;;;5.22;;
21356;SDS011;10836;53.068;18.234;2023-08-30T10:37:29;6.90;;;4.70;;
21356;SDS011;10836;53.068;18.234;2023-08-30T10:39:59;7.10;;;4.50;;
21356;SDS011;10836;53.068;18.234;2023-08-30T10:42:30;6.60;;;4.70;;
21356;SDS011;10836;53.068;18.234;2023-08-30T10:45:01;6.47;;;4.50;;
21356;SDS011;10836;53.068;18.234;2023-08-30T10:47:34;4.43;;;4.00;;
21356;SDS011;10836;53.068;18.234;2023-08-30T10:50:06;5.00;;;4.22;;
21356;SDS011;10836;53.068;18.234;2023-08-30T10:52:34;4.43;;;3.22;;
21356;SDS011;10836;53.068;18.234;2023-08-30T10:55:12;6.07;;;4.10;;
21356;SDS011;10836;53.068;18.234;2023-08-30T10:57:41;4.13;;;3.72;;
21356;SDS011;10836;53.068;18.234;2023-08-30T11:00:19;3.78;;;3.40;;
21356;SDS011;10836;53.068;18.234;2023-08-30T11:02:48;5.20;;;3.90;;
21356;SDS011;10836;53.068;18.234;2023-08-30T11:05:17;5.72;;;4.50;;
21356;SDS011;10836;53.068;18.234;2023-08-30T11:07:46;4.82;;;3.55;;
21356;SDS011;10836;53.068;18.234;2023-08-30T11:10:15;4.88;;;3.58;;
21356;SDS011;10836;53.068;18.234;2023-08-30T11:12:43;6.60;;;3.72;;
21356;SDS011;10836;53.068;18.234;2023-08-30T11:15:11;3.63;;;3.30;;
21356;SDS011;10836;53.068;18.234;2023-08-30T11:17:43;4.03;;;3.67;;
21356;SDS011;10836;53.068;18.234;2023-08-30T11:20:11;3.60;;;3.05;;
21356;SDS011;10836;53.068;18.234;2023-08-30T11:22:42;6.28;;;3.53;;
21356;SDS011;10836;53.068;18.234;2023-08-30T11:25:11;4.03;;;3.28;;
21356;SDS011;10836;53.068;18.234;2023-08-30T11:27:40;3.78;;;2.30;;
21356;SDS011;10836;53.068;18.234;2023-08-30T11:30:08;2.30;;;2.10;;
21356;SDS011;10836;53.068;18.234;2023-08-30T11:32:37;6.05;;;1.95;;
21356;SDS011;10836;53.068;18.234;2023-08-30T11:35:06;2.78;;;1.70;;
21356;SDS011;10836;53.068;18.234;2023-08-30T11:37:33;2.42;;;1.58;;
21356;SDS011;10836;53.068;18.234;2023-08-30T11:40:02;3.78;;;1.48;;
21356;SDS011;10836;53.068;18.234;2023-08-30T11:42:31;3.40;;;1.58;;
21356;SDS011;10836;53.068;18.234;2023-08-30T11:44:58;1.95;;;1.85;;
21356;SDS011;10836;53.068;18.234;2023-08-30T11:47:26;2.58;;;1.70;;
21356;SDS011;10836;53.068;18.234;2023-08-30T11:49:54;5.68;;;2.00;;
21356;SDS011;10836;53.068;18.234;2023-08-30T11:52:24;2.28;;;1.65;;
21356;SDS011;10836;53.068;18.234;2023-08-30T11:54:51;2.72;;;2.20;;
21356;SDS011;10836;53.068;18.234;2023-08-30T11:57:20;3.42;;;1.80;;
21356;SDS011;10836;53.068;18.234;2023-08-30T11:59:49;2.55;;;1.88;;
21356;SDS011;10836;53.068;18.234;2023-08-30T12:02:18;2.13;;;1.80;;
21356;SDS011;10836;53.068;18.234;2023-08-30T12:04:45;2.60;;;2.20;;
21356;SDS011;10836;53.068;18.234;2023-08-30T12:07:24;5.68;;;2.30;;
21356;SDS011;10836;53.068;18.234;2023-08-30T12:10:03;2.58;;;2.28;;
21356;SDS011;10836;53.068;18.234;2023-08-30T12:12:31;1.88;;;1.67;;
21356;SDS011;10836;53.068;18.234;2023-08-30T12:14:58;2.60;;;1.45;;
21356;SDS011;10836;53.068;18.234;2023-08-30T12:17:26;3.35;;;1.33;;
21356;SDS011;10836;53.068;18.234;2023-08-30T12:19:58;1.73;;;1.20;;
21356;SDS011;10836;53.068;18.234;2023-08-30T12:22:36;2.80;;;1.42;;
21356;SDS011;10836;53.068;18.234;2023-08-30T12:25:18;1.50;;;1.20;;
21356;SDS011;10836;53.068;18.234;2023-08-30T12:27:54;3.45;;;1.60;;
21356;SDS011;10836;53.068;18.234;2023-08-30T12:30:20;1.65;;;1.50;;
21356;SDS011;10836;53.068;18.234;2023-08-30T12:32:48;3.22;;;2.33;;
21356;SDS011;10836;53.068;18.234;2023-08-30T12:35:15;2.20;;;1.80;;
21356;SDS011;10836;53.068;18.234;2023-08-30T12:37:43;3.00;;;2.17;;
21356;SDS011;10836;53.068;18.234;2023-08-30T12:40:10;4.05;;;2.28;;
21356;SDS011;10836;53.068;18.234;2023-08-30T12:42:38;4.55;;;2.55;;
21356;SDS011;10836;53.068;18.234;2023-08-30T12:45:05;3.38;;;2.60;;
21356;SDS011;10836;53.068;18.234;2023-08-30T12:47:32;8.52;;;2.40;;
21356;SDS011;10836;53.068;18.234;2023-08-30T12:49:59;3.22;;;2.60;;
21356;SDS011;10836;53.068;18.234;2023-08-30T12:52:27;3.58;;;2.58;;
21356;SDS011;10836;53.068;18.234;2023-08-30T12:54:54;6.03;;;2.60;;
21356;SDS011;10836;53.068;18.234;2023-08-30T12:57:21;4.70;;;2.90;;
21356;SDS011;10836;53.068;18.234;2023-08-30T12:59:48;2.30;;;2.10;;
21356;SDS011;10836;53.068;18.234;2023-08-30T13:02:15;1.98;;;1.77;;
21356;SDS011;10836;53.068;18.234;2023-08-30T13:04:42;6.43;;;1.98;;
21356;SDS011;10836;53.068;18.234;2023-08-30T13:07:09;3.08;;;2.05;;
21356;SDS011;10836;53.068;18.234;2023-08-30T13:09:36;3.13;;;1.90;;
21356;SDS011;10836;53.068;18.234;2023-08-30T13:12:03;3.10;;;2.03;;
21356;SDS011;10836;53.068;18.234;2023-08-30T13:14:30;2.15;;;1.95;;
21356;SDS011;10836;53.068;18.234;2023-08-30T13:16:57;2.53;;;1.85;;
21356;SDS011;10836;53.068;18.234;2023-08-30T13:19:24;2.47;;;2.03;;
21356;SDS011;10836;53.068;18.234;2023-08-30T13:21:51;6.20;;;1.83;;
21356;SDS011;10836;53.068;18.234;2023-08-30T13:24:18;2.38;;;1.83;;
21356;SDS011;10836;53.068;18.234;2023-08-30T13:26:45;3.33;;;2.10;;
21356;SDS011;10836;53.068;18.234;2023-08-30T13:29:12;2.30;;;2.00;;
21356;SDS011;10836;53.068;18.234;2023-08-30T13:31:40;2.65;;;1.77;;
21356;SDS011;10836;53.068;18.234;2023-08-30T13:34:06;2.38;;;1.67;;
21356;SDS011;10836;53.068;18.234;2023-08-30T13:36:33;1.85;;;1.33;;
21356;SDS011;10836;53.068;18.234;2023-08-30T13:39:02;2.20;;;1.33;;
21356;SDS011;10836;53.068;18.234;2023-08-30T13:41:29;4.30;;;1.38;;
21356;SDS011;10836;53.068;18.234;2023-08-30T13:43:56;4.45;;;1.63;;
21356;SDS011;10836;53.068;18.234;2023-08-30T13:46:27;4.63;;;1.52;;
21356;SDS011;10836;53.068;18.234;2023-08-30T13:48:55;1.92;;;1.67;;
21356;SDS011;10836;53.068;18.234;2023-08-30T13:51:22;2.40;;;1.30;;
21356;SDS011;10836;53.068;18.234;2023-08-30T13:53:50;4.20;;;1.60;;
21356;SDS011;10836;53.068;18.234;2023-08-30T13:56:18;2.65;;;1.70;;
21356;SDS011;10836;53.068;18.234;2023-08-30T13:58:46;2.85;;;1.60;;
21356;SDS011;10836;53.068;18.234;2023-08-30T14:01:13;1.48;;;1.33;;
21356;SDS011;10836;53.068;18.234;2023-08-30T14:03:40;4.38;;;1.90;;
21356;SDS011;10836;53.068;18.234;2023-08-30T14:06:07;1.60;;;1.25;;
21356;SDS011;10836;53.068;18.234;2023-08-30T14:08:34;1.80;;;1.08;;
21356;SDS011;10836;53.068;18.234;2023-08-30T14:11:02;1.40;;;1.08;;
21356;SDS011;10836;53.068;18.234;2023-08-30T14:13:30;2.70;;;1.25;;
21356;SDS011;10836;53.068;18.234;2023-08-30T14:16:00;5.40;;;1.25;;
21356;SDS011;10836;53.068;18.234;2023-08-30T14:18:31;1.00;;;0.82;;
21356;SDS011;10836;53.068;18.234;2023-08-30T14:20:59;1.02;;;0.70;;
21356;SDS011;10836;53.068;18.234;2023-08-30T14:23:26;2.35;;;1.20;;
21356;SDS011;10836;53.068;18.234;2023-08-30T14:25:59;1.58;;;1.27;;
21356;SDS011;10836;53.068;18.234;2023-08-30T14:28:27;3.10;;;1.20;;
21356;SDS011;10836;53.068;18.234;2023-08-30T14:30:54;2.20;;;1.50;;
21356;SDS011;10836;53.068;18.234;2023-08-30T14:33:21;2.42;;;1.73;;
21356;SDS011;10836;53.068;18.234;2023-08-30T14:35:48;1.77;;;1.55;;
21356;SDS011;10836;53.068;18.234;2023-08-30T14:38:15;5.18;;;1.90;;
21356;SDS011;10836;53.068;18.234;2023-08-30T14:40:42;4.00;;;1.88;;